Time;durP1;ratioP1;P1;durP2;ratioP2;P2;SDS_P1;SDS_P2;PMS_P1;PMS_P2;Temp;Humidity;BMP_temperature;BMP_pressure;BME280_temperature;BME280_humidity;BME280_pressure;Samples;Min_cycle;Max_cycle;Signal;HPM_P1;HPM_P2
2021/11/21 00:02:14;;;;;;;16.50;13.50;;;10.10;99.90;;;;;;5012236;28;20210;-56
2021/11/21 00:04:40;;;;;;;17.27;13.77;;;10.00;99.90;;;;;;5011807;28;20168;-54
2021/11/21 00:07:05;;;;;;;14.53;12.87;;;9.80;99.90;;;;;;5012147;28;20195;-50
2021/11/21 00:09:31;;;;;;;13.87;12.27;;;9.90;99.90;;;;;;5012091;28;20646;-48
2021/11/21 00:11:57;;;;;;;15.17;12.53;;;9.90;99.90;;;;;;5012126;28;20235;-54
2021/11/21 00:14:23;;;;;;;14.60;11.33;;;9.90;99.90;;;;;;5012060;28;20169;-51
2021/11/21 00:16:48;;;;;;;16.63;14.60;;;9.80;99.90;;;;;;5011763;28;20671;-53
2021/11/21 00:19:14;;;;;;;16.67;14.87;;;9.60;99.90;;;;;;5011833;28;20579;-52
2021/11/21 00:21:40;;;;;;;16.53;14.13;;;9.50;99.90;;;;;;5011660;28;20216;-54
2021/11/21 00:24:05;;;;;;;18.50;15.40;;;9.60;99.90;;;;;;5012058;28;20172;-54
2021/11/21 00:26:31;;;;;;;17.07;15.23;;;9.60;99.90;;;;;;5011532;28;20210;-58
2021/11/21 00:28:56;;;;;;;16.73;14.50;;;9.50;99.90;;;;;;5012036;28;20180;-50
2021/11/21 00:31:22;;;;;;;17.60;14.93;;;9.50;99.90;;;;;;5011847;28;20192;-50
2021/11/21 00:33:48;;;;;;;17.57;14.53;;;9.50;99.90;;;;;;5011819;28;20256;-55
2021/11/21 00:36:14;;;;;;;15.97;14.03;;;9.50;99.90;;;;;;5011577;28;20187;-53
2021/11/21 00:38:40;;;;;;;16.37;14.30;;;9.60;99.90;;;;;;5011793;28;20180;-53
2021/11/21 00:41:05;;;;;;;16.10;13.83;;;9.70;99.90;;;;;;5011642;28;20204;-49
2021/11/21 00:43:32;;;;;;;17.03;13.57;;;9.70;99.90;;;;;;5011841;28;20180;-50
2021/11/21 00:45:58;;;;;;;15.60;13.17;;;9.80;99.90;;;;;;5011536;28;20172;-53
2021/11/21 00:48:24;;;;;;;17.50;13.60;;;9.80;99.90;;;;;;5011677;28;20535;-50
2021/11/21 00:50:53;;;;;;;14.90;12.93;;;9.80;99.90;;;;;;5011698;28;20671;-51
2021/11/21 00:53:19;;;;;;;13.47;11.93;;;9.80;99.90;;;;;;5011676;28;20180;-55
2021/11/21 00:55:52;;;;;;;14.43;12.93;;;9.90;99.90;;;;;;5011530;28;20173;-53
2021/11/21 00:58:17;;;;;;;16.33;13.97;;;9.80;99.90;;;;;;5004675;28;20180;-53
2021/11/21 01:00:47;;;;;;;16.80;13.73;;;9.80;99.90;;;;;;5011535;28;20201;-53
2021/11/21 01:03:16;;;;;;;16.33;14.40;;;9.80;99.90;;;;;;5011465;28;20185;-51
2021/11/21 01:05:43;;;;;;;19.57;15.33;;;9.80;99.90;;;;;;5011179;28;20651;-56
2021/11/21 01:08:09;;;;;;;18.30;15.27;;;9.80;99.90;;;;;;5011535;28;20259;-55
2021/11/21 01:10:35;;;;;;;17.30;14.33;;;9.70;99.90;;;;;;5011588;28;20714;-52
2021/11/21 01:13:01;;;;;;;16.90;15.10;;;9.70;99.90;;;;;;5011418;28;20172;-53
2021/11/21 01:15:27;;;;;;;16.67;14.20;;;9.70;99.90;;;;;;5011297;28;20630;-54
2021/11/21 01:17:56;;;;;;;17.53;14.97;;;9.70;99.90;;;;;;5011285;28;20174;-53
2021/11/21 01:20:23;;;;;;;24.17;18.40;;;9.80;99.90;;;;;;5011393;28;20198;-54
2021/11/21 01:22:50;;;;;;;19.80;16.30;;;9.80;99.90;;;;;;5011315;28;20235;-52
2021/11/21 01:25:16;;;;;;;18.70;14.87;;;10.40;99.90;;;;;;5011143;28;20260;-53
2021/11/21 01:27:42;;;;;;;16.77;14.57;;;10.10;99.90;;;;;;5011329;28;20169;-54
2021/11/21 01:30:12;;;;;;;16.33;14.20;;;10.30;99.90;;;;;;5011303;28;20192;-56
2021/11/21 01:32:38;;;;;;;17.13;14.33;;;9.80;99.90;;;;;;5014111;28;20192;-54
2021/11/21 01:35:05;;;;;;;15.10;13.50;;;9.80;99.90;;;;;;5014640;28;20276;-53
2021/11/21 01:37:30;;;;;;;16.67;14.50;;;9.80;99.90;;;;;;5014802;28;20173;-48
2021/11/21 01:39:56;;;;;;;15.93;13.63;;;9.80;99.90;;;;;;5014613;28;20215;-51
2021/11/21 01:42:25;;;;;;;17.00;14.33;;;9.80;99.90;;;;;;5014691;28;20192;-55
2021/11/21 01:44:51;;;;;;;16.70;13.50;;;9.80;99.90;;;;;;5014377;28;20172;-52
2021/11/21 01:47:17;;;;;;;16.43;13.93;;;9.80;99.90;;;;;;5014662;28;20200;-50
2021/11/21 01:49:42;;;;;;;16.23;14.00;;;9.80;99.90;;;;;;5014483;28;20255;-53
2021/11/21 01:52:08;;;;;;;16.03;14.00;;;9.80;99.90;;;;;;5014695;28;20189;-48
2021/11/21 01:54:34;;;;;;;17.17;13.17;;;9.80;99.90;;;;;;5014391;28;20215;-47
2021/11/21 01:57:00;;;;;;;16.37;13.83;;;9.80;99.90;;;;;;5014327;28;20698;-48
2021/11/21 01:59:26;;;;;;;16.00;13.67;;;9.80;99.90;;;;;;5014409;28;20173;-49
2021/11/21 02:01:51;;;;;;;16.13;13.13;;;9.70;99.90;;;;;;5014206;28;20294;-51
2021/11/21 02:04:17;;;;;;;15.13;12.50;;;9.70;99.90;;;;;;5014431;28;20176;-50
2021/11/21 02:06:42;;;;;;;13.93;12.10;;;9.70;99.90;;;;;;5013900;28;20650;-48
2021/11/21 02:09:08;;;;;;;14.60;11.57;;;9.60;99.90;;;;;;5014311;28;20631;-48
2021/11/21 02:11:34;;;;;;;14.10;12.07;;;9.60;99.90;;;;;;5014172;28;20192;-47
2021/11/21 02:14:00;;;;;;;15.97;13.27;;;9.60;99.90;;;;;;5014171;28;20231;-48
2021/11/21 02:16:28;;;;;;;36.93;22.67;;;9.70;99.90;;;;;;5013698;28;20203;-48
2021/11/21 02:18:54;;;;;;;20.20;16.10;;;9.60;99.90;;;;;;5014193;28;20196;-47
2021/11/21 02:21:20;;;;;;;22.43;17.83;;;9.60;99.90;;;;;;5013884;28;20706;-48
2021/11/21 02:23:48;;;;;;;27.30;19.37;;;9.60;99.90;;;;;;5013983;28;20173;-49
2021/11/21 02:26:17;;;;;;;52.03;32.03;;;9.50;99.90;;;;;;5013646;28;20650;-51
2021/11/21 02:28:44;;;;;;;20.30;16.40;;;9.40;99.90;;;;;;5013887;28;20172;-48
2021/11/21 02:31:11;;;;;;;18.47;16.03;;;9.10;99.90;;;;;;5013562;28;20663;-49
2021/11/21 02:33:38;;;;;;;20.27;15.93;;;9.10;99.90;;;;;;5013911;28;20195;-51
2021/11/21 02:36:05;;;;;;;20.17;16.17;;;8.90;99.90;;;;;;5013531;28;20168;-49
2021/11/21 02:38:31;;;;;;;18.23;15.80;;;8.80;99.90;;;;;;5013669;28;20250;-50
2021/11/21 02:40:59;;;;;;;18.17;15.57;;;8.60;99.90;;;;;;5013370;28;20204;-47
2021/11/21 02:43:27;;;;;;;18.13;15.83;;;8.60;99.90;;;;;;5013504;28;20643;-50
2021/11/21 02:45:55;;;;;;;22.43;18.33;;;8.60;99.90;;;;;;5013325;28;20161;-50
2021/11/21 02:48:23;;;;;;;27.63;19.83;;;8.60;99.90;;;;;;5013457;28;20547;-50
2021/11/21 02:50:51;;;;;;;23.07;17.50;;;8.70;99.90;;;;;;5013376;28;20216;-48
2021/11/21 02:53:18;;;;;;;19.57;15.87;;;8.90;99.90;;;;;;5013438;28;20176;-48
2021/11/21 02:55:44;;;;;;;24.50;17.07;;;9.00;99.90;;;;;;5013085;28;20176;-54
2021/11/21 02:58:10;;;;;;;22.63;17.37;;;8.90;99.90;;;;;;5013108;28;20171;-50
2021/11/21 03:00:37;;;;;;;22.30;18.57;;;8.90;99.90;;;;;;5013276;28;20200;-51
2021/11/21 03:03:03;;;;;;;19.20;16.07;;;8.80;99.90;;;;;;5013195;28;20266;-48
2021/11/21 03:05:33;;;;;;;19.30;16.37;;;8.80;99.90;;;;;;5013053;28;20635;-54
2021/11/21 03:07:59;;;;;;;20.13;16.67;;;9.00;99.90;;;;;;5012983;28;20243;-48
2021/11/21 03:10:28;;;;;;;20.40;16.73;;;8.90;99.90;;;;;;5013027;28;20244;-48
2021/11/21 03:12:59;;;;;;;18.27;16.03;;;8.80;99.90;;;;;;5013070;28;20176;-51
2021/11/21 03:15:25;;;;;;;19.17;16.53;;;8.60;99.90;;;;;;5010373;28;20655;-53
2021/11/21 03:17:52;;;;;;;19.03;16.07;;;8.50;99.90;;;;;;5012912;28;20184;-48
2021/11/21 03:20:21;;;;;;;18.60;15.73;;;8.50;99.90;;;;;;5012875;28;20204;-50
2021/11/21 03:22:48;;;;;;;19.53;16.63;;;8.60;99.90;;;;;;5012865;28;20224;-51
2021/11/21 03:25:14;;;;;;;19.43;16.10;;;8.70;99.90;;;;;;5012538;28;20183;-50
2021/11/21 03:27:41;;;;;;;19.70;16.60;;;8.70;99.90;;;;;;5012727;28;20196;-51
2021/11/21 03:30:10;;;;;;;18.90;15.67;;;8.70;99.90;;;;;;5012683;28;20193;-49
2021/11/21 03:32:35;;;;;;;18.70;15.97;;;8.60;99.90;;;;;;5012812;28;20200;-53
2021/11/21 03:35:01;;;;;;;17.97;15.37;;;8.60;99.90;;;;;;5012474;28;20176;-47
2021/11/21 03:37:27;;;;;;;19.90;17.10;;;8.60;99.90;;;;;;5012534;28;20172;-51
2021/11/21 03:39:53;;;;;;;18.83;16.20;;;8.60;99.90;;;;;;5012341;28;20646;-49
2021/11/21 03:42:18;;;;;;;19.60;17.00;;;8.60;99.90;;;;;;5012627;28;20617;-50
2021/11/21 03:44:44;;;;;;;19.53;16.60;;;8.70;99.90;;;;;;5012231;28;20168;-55
2021/11/21 03:47:10;;;;;;;19.73;16.53;;;8.80;99.90;;;;;;5012437;28;20183;-52
2021/11/21 03:49:36;;;;;;;18.47;16.10;;;9.00;99.90;;;;;;5012357;28;20176;-48
2021/11/21 03:52:02;;;;;;;20.17;16.60;;;9.00;99.90;;;;;;5011240;28;20263;-52
2021/11/21 03:54:28;;;;;;;18.93;16.33;;;9.00;99.90;;;;;;5011975;28;20172;-48
2021/11/21 03:56:53;;;;;;;22.13;17.20;;;9.10;99.90;;;;;;5011964;28;20203;-49
2021/11/21 03:59:19;;;;;;;20.40;17.67;;;9.10;99.90;;;;;;5012348;28;20571;-49
2021/11/21 04:01:46;;;;;;;19.03;16.67;;;9.20;99.90;;;;;;5012131;28;20231;-48
2021/11/21 04:04:12;;;;;;;19.40;16.67;;;9.20;99.90;;;;;;5012349;28;20603;-53
2021/11/21 04:06:38;;;;;;;18.87;16.30;;;9.20;99.90;;;;;;5011740;28;20172;-49
2021/11/21 04:09:04;;;;;;;19.40;16.80;;;9.30;99.90;;;;;;5012165;28;20204;-53
2021/11/21 04:11:30;;;;;;;18.93;16.63;;;9.30;99.90;;;;;;5012079;28;20222;-55
2021/11/21 04:13:57;;;;;;;19.23;16.60;;;9.30;99.90;;;;;;5012177;28;20556;-48
2021/11/21 04:16:22;;;;;;;19.63;16.90;;;9.30;99.90;;;;;;5011862;28;20602;-51
2021/11/21 04:18:48;;;;;;;18.70;15.77;;;9.30;99.90;;;;;;5012076;28;20184;-50
2021/11/21 04:21:14;;;;;;;18.03;15.50;;;9.40;99.90;;;;;;5011849;28;20196;-53
2021/11/21 04:23:39;;;;;;;17.63;14.77;;;9.40;99.90;;;;;;5012092;28;20165;-48
2021/11/21 04:26:05;;;;;;;18.77;15.77;;;9.50;99.90;;;;;;5011716;28;20176;-51
2021/11/21 04:28:31;;;;;;;19.63;16.97;;;9.50;99.90;;;;;;5011832;28;20259;-50
2021/11/21 04:30:56;;;;;;;19.13;16.10;;;9.50;99.90;;;;;;5011964;28;20223;-53
2021/11/21 04:33:23;;;;;;;17.17;15.00;;;9.50;99.90;;;;;;5011930;28;20270;-50
2021/11/21 04:35:49;;;;;;;17.47;15.00;;;9.50;99.90;;;;;;5011632;28;20168;-50
2021/11/21 04:38:16;;;;;;;17.97;15.27;;;9.50;99.90;;;;;;5011863;28;20168;-53
2021/11/21 04:40:43;;;;;;;20.33;17.17;;;9.60;99.90;;;;;;5048383;23;20236;-56
2021/11/21 04:43:08;;;;;;;20.00;16.83;;;10.10;99.90;;;;;;5004677;28;20212;-56
2021/11/21 04:45:34;;;;;;;20.60;17.70;;;9.80;99.90;;;;;;5003009;28;20256;-54
2021/11/21 04:48:00;;;;;;;22.30;17.73;;;9.40;99.90;;;;;;5011353;28;20242;-52
2021/11/21 04:50:26;;;;;;;20.33;16.87;;;9.40;99.90;;;;;;5001325;28;20201;-56
2021/11/21 04:52:51;;;;;;;18.83;16.03;;;9.40;99.90;;;;;;4990557;28;20268;-50
2021/11/21 04:55:17;;;;;;;19.07;16.90;;;9.40;99.90;;;;;;4991816;28;20173;-56
2021/11/21 04:57:43;;;;;;;19.67;15.30;;;9.40;99.90;;;;;;4990546;28;20190;-53
2021/11/21 05:00:15;;;;;;;20.10;16.33;;;9.40;99.90;;;;;;4991873;28;20180;-54
2021/11/21 05:02:43;;;;;;;19.47;16.13;;;9.30;99.90;;;;;;4991843;28;20193;-52
2021/11/21 05:05:09;;;;;;;18.83;16.40;;;9.40;99.90;;;;;;4991521;28;20208;-50
2021/11/21 05:07:35;;;;;;;20.30;17.27;;;9.30;99.90;;;;;;4994781;28;20169;-54
2021/11/21 05:10:01;;;;;;;20.80;16.30;;;9.30;99.90;;;;;;4995641;28;20248;-54
2021/11/21 05:12:26;;;;;;;19.30;16.80;;;9.30;99.90;;;;;;4995770;28;20179;-50
2021/11/21 05:14:54;;;;;;;19.90;16.40;;;9.30;99.90;;;;;;4994686;28;20648;-52
2021/11/21 05:17:20;;;;;;;19.17;16.63;;;9.30;99.90;;;;;;4995453;28;20200;-53
2021/11/21 05:19:45;;;;;;;21.13;18.00;;;9.40;99.90;;;;;;4995383;28;20201;-52
2021/11/21 05:22:11;;;;;;;22.83;19.13;;;9.40;99.90;;;;;;4995650;28;20197;-56
2021/11/21 05:24:36;;;;;;;20.93;18.33;;;9.40;99.90;;;;;;4995242;28;20268;-53
2021/11/21 05:27:02;;;;;;;21.13;18.23;;;9.50;99.90;;;;;;4995276;28;20169;-53
2021/11/21 05:29:28;;;;;;;21.17;18.33;;;9.50;99.90;;;;;;4995432;28;20174;-57
2021/11/21 05:31:53;;;;;;;19.77;17.47;;;9.50;99.90;;;;;;4995354;28;20604;-59
2021/11/21 05:34:19;;;;;;;22.20;17.63;;;9.50;99.90;;;;;;4995284;28;20548;-51
2021/11/21 05:36:44;;;;;;;20.47;17.93;;;9.50;99.90;;;;;;4994941;28;20263;-51
2021/11/21 05:39:11;;;;;;;23.47;19.43;;;9.30;99.90;;;;;;4995254;28;20173;-54
2021/11/21 05:41:36;;;;;;;22.20;18.80;;;9.40;99.90;;;;;;4994971;28;20251;-56
2021/11/21 05:44:03;;;;;;;24.30;19.87;;;9.40;99.90;;;;;;4995112;28;20643;-56
2021/11/21 05:46:28;;;;;;;22.10;18.47;;;9.30;99.90;;;;;;4994745;28;20203;-52
2021/11/21 05:48:54;;;;;;;20.53;17.70;;;9.30;99.90;;;;;;4991563;28;20213;-50
2021/11/21 05:51:20;;;;;;;21.83;18.33;;;9.10;99.90;;;;;;4990709;28;20201;-52
2021/11/21 05:53:46;;;;;;;20.40;17.67;;;9.10;99.90;;;;;;4994869;28;20185;-55
2021/11/21 05:56:12;;;;;;;22.80;18.90;;;9.00;99.90;;;;;;4994634;28;20173;-52
2021/11/21 05:58:38;;;;;;;23.00;19.03;;;8.80;99.90;;;;;;4994856;28;20191;-54
2021/11/21 06:01:04;;;;;;;22.23;18.33;;;8.70;99.90;;;;;;4994660;28;20275;-55
2021/11/21 06:03:29;;;;;;;21.17;18.53;;;8.50;99.90;;;;;;4994814;28;20173;-55
2021/11/21 06:05:55;;;;;;;22.20;18.80;;;8.50;99.90;;;;;;4994382;28;20215;-55
2021/11/21 06:08:21;;;;;;;23.40;19.63;;;8.60;99.90;;;;;;4994734;28;20228;-53
2021/11/21 06:10:46;;;;;;;23.20;18.53;;;8.70;99.90;;;;;;4994435;28;20189;-53
2021/11/21 06:13:12;;;;;;;21.33;18.80;;;8.80;99.90;;;;;;4994654;28;20196;-54
2021/11/21 06:15:38;;;;;;;21.57;18.10;;;8.90;99.90;;;;;;4994241;28;20189;-56
2021/11/21 06:18:04;;;;;;;23.43;19.30;;;9.00;99.90;;;;;;4994030;28;20206;-51
2021/11/21 06:20:30;;;;;;;22.17;19.03;;;9.00;99.90;;;;;;4994410;28;20687;-51
2021/11/21 06:22:56;;;;;;;25.60;21.13;;;8.90;99.90;;;;;;4994406;28;20216;-52
2021/11/21 06:25:21;;;;;;;23.00;19.67;;;8.90;99.90;;;;;;4994181;28;20180;-51
2021/11/21 06:27:47;;;;;;;21.90;18.97;;;9.00;99.90;;;;;;4994180;28;20552;-54
2021/11/21 06:30:13;;;;;;;22.53;19.20;;;9.00;99.90;;;;;;4994361;28;20610;-53
2021/11/21 06:32:39;;;;;;;20.93;18.43;;;8.90;99.90;;;;;;4994049;28;20188;-51
2021/11/21 06:35:05;;;;;;;22.87;18.90;;;8.90;99.90;;;;;;4993990;28;20640;-56
2021/11/21 06:37:31;;;;;;;25.33;20.37;;;8.90;99.90;;;;;;4994126;28;20185;-53
2021/11/21 06:39:57;;;;;;;22.27;19.27;;;8.90;99.90;;;;;;4993975;28;20240;-55
2021/11/21 06:42:23;;;;;;;22.93;20.30;;;8.80;99.90;;;;;;4993917;28;20255;-53
2021/11/21 06:44:48;;;;;;;22.87;19.37;;;8.90;99.90;;;;;;4993701;28;20176;-50
2021/11/21 06:47:15;;;;;;;21.80;19.07;;;8.80;99.90;;;;;;4993840;28;20612;-57
2021/11/21 06:49:41;;;;;;;24.47;19.43;;;8.90;99.90;;;;;;4994033;28;20653;-54
2021/11/21 06:52:07;;;;;;;23.50;19.83;;;8.90;99.90;;;;;;4993867;28;20193;-53
2021/11/21 06:54:33;;;;;;;23.63;19.97;;;8.90;99.90;;;;;;4993794;28;20180;-54
2021/11/21 06:56:59;;;;;;;25.47;21.30;;;8.90;99.90;;;;;;4991914;28;20189;-51
2021/11/21 06:59:25;;;;;;;24.17;19.90;;;8.90;99.90;;;;;;4990104;28;20256;-52
2021/11/21 07:01:50;;;;;;;24.87;19.13;;;8.90;99.90;;;;;;4974202;28;20232;-53
2021/11/21 07:04:16;;;;;;;24.83;20.50;;;8.90;99.90;;;;;;4974212;28;20217;-54
2021/11/21 07:06:43;;;;;;;26.37;20.10;;;8.80;99.90;;;;;;4973860;28;20177;-54
2021/11/21 07:09:14;;;;;;;25.73;19.90;;;8.70;99.90;;;;;;4974084;28;20174;-55
2021/11/21 07:11:41;;;;;;;24.70;19.70;;;8.80;99.90;;;;;;4973940;28;20573;-51
2021/11/21 07:14:10;;;;;;;24.77;20.00;;;8.90;99.90;;;;;;4973964;28;20177;-53
2021/11/21 07:16:36;;;;;;;26.67;21.67;;;9.00;99.90;;;;;;4973789;28;20174;-56
2021/11/21 07:19:02;;;;;;;26.80;22.33;;;8.90;99.90;;;;;;4973877;28;20181;-52
2021/11/21 07:21:27;;;;;;;26.10;20.87;;;8.70;99.90;;;;;;4974044;28;20216;-53
2021/11/21 07:23:53;;;;;;;23.17;19.37;;;8.80;99.90;;;;;;4973839;28;20181;-55
2021/11/21 07:26:19;;;;;;;22.20;18.43;;;8.80;99.90;;;;;;4973579;28;20589;-54
2021/11/21 07:28:45;;;;;;;23.97;19.77;;;8.70;99.90;;;;;;4972983;28;20193;-55
2021/11/21 07:31:11;;;;;;;25.60;20.60;;;8.60;99.90;;;;;;4973625;28;20276;-51
2021/11/21 07:33:37;;;;;;;26.43;19.80;;;8.60;99.90;;;;;;4974005;28;20185;-56
2021/11/21 07:36:04;;;;;;;23.73;20.03;;;8.60;99.90;;;;;;4973334;28;20541;-55
2021/11/21 07:38:30;;;;;;;24.83;19.60;;;8.60;99.90;;;;;;4973623;28;20197;-54
2021/11/21 07:40:55;;;;;;;26.27;20.43;;;8.60;99.90;;;;;;4973445;28;20860;-51
2021/11/21 07:43:22;;;;;;;24.47;20.10;;;8.60;99.90;;;;;;4973270;28;20216;-54
2021/11/21 07:45:48;;;;;;;24.93;20.03;;;8.70;99.90;;;;;;4973104;28;20174;-55
2021/11/21 07:48:14;;;;;;;24.90;22.20;;;8.70;99.90;;;;;;4973538;28;20692;-54
2021/11/21 07:50:40;;;;;;;24.93;20.37;;;8.70;99.90;;;;;;4973200;28;20225;-54
2021/11/21 07:53:05;;;;;;;24.17;19.33;;;8.70;99.90;;;;;;4973468;28;20214;-53
2021/11/21 07:55:31;;;;;;;23.90;18.90;;;8.70;99.90;;;;;;4972969;28;20220;-52
2021/11/21 07:57:57;;;;;;;24.00;19.13;;;8.60;99.90;;;;;;4973211;28;20533;-52
2021/11/21 08:00:22;;;;;;;23.57;20.70;;;8.60;99.90;;;;;;4973451;28;20190;-56
2021/11/21 08:02:48;;;;;;;22.27;19.10;;;8.60;99.90;;;;;;4973083;28;20209;-54
2021/11/21 08:05:14;;;;;;;23.00;19.53;;;8.50;99.90;;;;;;4973027;28;20174;-55
2021/11/21 08:07:40;;;;;;;23.67;19.13;;;8.40;99.90;;;;;;4972695;28;20536;-56
2021/11/21 08:10:07;;;;;;;23.10;19.60;;;8.20;99.90;;;;;;4973246;28;20224;-51
2021/11/21 08:12:33;;;;;;;25.67;19.70;;;8.20;99.90;;;;;;4972492;28;20174;-53
2021/11/21 08:14:58;;;;;;;26.07;20.57;;;8.20;99.90;;;;;;4972859;28;20667;-52
2021/11/21 08:17:24;;;;;;;25.77;21.00;;;8.10;99.90;;;;;;4972981;28;20260;-55
2021/11/21 08:19:50;;;;;;;24.47;20.60;;;7.80;99.90;;;;;;4972864;28;20169;-53
2021/11/21 08:22:15;;;;;;;27.37;21.30;;;8.50;99.90;;;;;;4972442;28;20337;-52
2021/11/21 08:24:41;;;;;;;23.20;19.70;;;7.80;99.90;;;;;;4972451;28;20166;-52
2021/11/21 08:27:07;;;;;;;23.80;19.77;;;7.90;99.90;;;;;;4972793;28;20177;-53
2021/11/21 08:29:33;;;;;;;23.93;19.00;;;7.80;99.90;;;;;;4972676;28;20193;-48
2021/11/21 08:31:59;;;;;;;24.23;19.20;;;7.80;99.90;;;;;;4972675;28;20237;-51
2021/11/21 08:34:25;;;;;;;22.30;18.10;;;7.80;99.90;;;;;;4973278;28;20228;-52
2021/11/21 08:36:52;;;;;;;23.50;18.70;;;7.70;99.90;;;;;;4972434;28;20256;-56
2021/11/21 08:39:21;;;;;;;22.07;18.50;;;7.70;99.90;;;;;;4979271;28;20652;-53
2021/11/21 08:41:47;;;;;;;22.47;18.20;;;7.70;99.90;;;;;;5002448;28;20203;-53
2021/11/21 08:44:13;;;;;;;22.50;17.63;;;7.70;99.90;;;;;;5008948;28;20165;-56
2021/11/21 08:46:39;;;;;;;21.90;17.60;;;7.80;99.90;;;;;;5006189;28;20173;-54
2021/11/21 08:49:04;;;;;;;22.77;20.20;;;7.80;99.90;;;;;;5005003;28;20590;-51
2021/11/21 08:51:30;;;;;;;22.87;19.43;;;8.00;99.90;;;;;;5006034;28;20227;-54
2021/11/21 08:53:56;;;;;;;22.37;18.53;;;7.90;99.90;;;;;;5004300;28;20603;-51
2021/11/21 08:56:22;;;;;;;23.27;19.27;;;8.10;99.90;;;;;;5004292;28;20177;-51
2021/11/21 08:58:48;;;;;;;23.30;18.63;;;8.30;99.90;;;;;;5004229;28;20640;-48
2021/11/21 09:01:14;;;;;;;23.87;19.37;;;8.20;99.90;;;;;;5003519;28;20204;-51
2021/11/21 09:03:40;;;;;;;26.23;20.73;;;8.00;99.90;;;;;;5005505;28;20243;-51
2021/11/21 09:06:06;;;;;;;22.73;19.33;;;8.60;99.90;;;;;;5005127;28;20172;-50
2021/11/21 09:08:32;;;;;;;24.20;20.20;;;8.10;99.90;;;;;;5003765;28;20176;-50
2021/11/21 09:10:58;;;;;;;23.07;19.17;;;8.10;99.90;;;;;;5005398;28;20246;-54
2021/11/21 09:13:24;;;;;;;22.47;18.33;;;8.10;99.90;;;;;;5002946;28;20655;-58
2021/11/21 09:15:50;;;;;;;22.67;18.87;;;8.00;99.90;;;;;;5005644;28;20188;-57
2021/11/21 09:18:15;;;;;;;27.47;22.20;;;8.10;99.90;;;;;;5003889;28;20187;-49
2021/11/21 09:20:41;;;;;;;24.73;19.30;;;8.30;99.90;;;;;;5004554;28;20248;-52
2021/11/21 09:23:11;;;;;;;21.83;18.00;;;8.40;99.90;;;;;;5003902;28;20200;-52
2021/11/21 09:25:38;;;;;;;21.30;18.00;;;8.50;99.90;;;;;;5004894;28;20542;-50
2021/11/21 09:28:04;;;;;;;24.37;19.13;;;8.50;99.90;;;;;;5004942;28;20181;-54
2021/11/21 09:30:30;;;;;;;21.93;18.40;;;8.60;99.90;;;;;;5003204;28;20715;-52
2021/11/21 09:32:55;;;;;;;21.53;17.33;;;8.60;99.90;;;;;;5005543;28;20176;-51
2021/11/21 09:35:23;;;;;;;20.27;17.30;;;8.50;99.90;;;;;;5003970;28;20173;-55
2021/11/21 09:37:49;;;;;;;23.60;19.00;;;8.40;99.90;;;;;;5002709;28;20168;-52
2021/11/21 09:40:16;;;;;;;21.80;17.17;;;8.30;99.90;;;;;;5000412;28;20177;-51
2021/11/21 09:42:43;;;;;;;21.57;17.53;;;8.30;99.90;;;;;;5004591;28;20200;-50
2021/11/21 09:45:10;;;;;;;23.60;19.10;;;8.20;99.90;;;;;;4995856;28;20185;-50
2021/11/21 09:47:36;;;;;;;25.13;20.33;;;8.30;99.90;;;;;;4994688;28;20166;-54
2021/11/21 09:50:06;;;;;;;20.53;17.30;;;9.30;99.90;;;;;;4994711;28;20205;-55
2021/11/21 09:52:32;;;;;;;22.47;17.13;;;8.40;99.90;;;;;;4992578;28;20710;-55
2021/11/21 09:54:58;;;;;;;21.60;17.93;;;8.30;99.90;;;;;;4994720;28;20185;-52
2021/11/21 09:57:24;;;;;;;22.07;17.83;;;8.40;99.90;;;;;;4993547;28;20662;-51
2021/11/21 09:59:53;;;;;;;26.50;21.87;;;8.50;99.90;;;;;;4993736;28;20169;-50
2021/11/21 10:02:41;;;;;;;24.23;19.53;;;8.40;99.90;;;;;;4994370;28;20355;-53
2021/11/21 10:05:22;;;;;;;25.93;21.07;;;8.90;99.90;;;;;;4994206;28;20173;-52
2021/11/21 10:07:48;;;;;;;23.67;19.87;;;8.30;99.90;;;;;;4994256;28;20165;-54
2021/11/21 10:10:18;;;;;;;24.40;19.30;;;8.40;99.90;;;;;;4994383;28;20166;-55
2021/11/21 10:12:44;;;;;;;25.10;20.97;;;8.50;99.90;;;;;;4993417;28;20173;-55
2021/11/21 10:15:14;;;;;;;22.33;17.77;;;8.60;99.90;;;;;;4993937;28;20548;-56
2021/11/21 10:17:46;;;;;;;22.10;19.00;;;8.60;99.90;;;;;;4989314;28;20173;-54
2021/11/21 10:20:23;;;;;;;21.90;17.50;;;8.80;99.90;;;;;;4993278;28;20177;-52
2021/11/21 10:22:52;;;;;;;24.40;19.13;;;8.80;99.90;;;;;;4993805;28;20336;-52
2021/11/21 10:25:33;;;;;;;22.53;17.73;;;8.50;99.90;;;;;;4993708;28;20173;-55
2021/11/21 10:28:07;;;;;;;19.27;15.07;;;8.10;99.90;;;;;;4994151;28;20177;-55
2021/11/21 10:30:52;;;;;;;22.33;17.93;;;8.10;99.90;;;;;;4993733;28;20196;-54
2021/11/21 10:33:22;;;;;;;22.33;17.90;;;8.20;99.90;;;;;;4994327;28;20576;-52
2021/11/21 10:35:54;;;;;;;23.77;19.40;;;8.40;99.90;;;;;;4993764;28;20221;-52
2021/11/21 10:38:20;;;;;;;22.93;18.13;;;8.60;99.90;;;;;;4991980;28;20658;-55
2021/11/21 10:40:45;;;;;;;21.80;17.00;;;8.60;99.90;;;;;;4992259;28;20298;-55
2021/11/21 10:43:17;;;;;;;22.23;17.00;;;8.50;99.90;;;;;;5017657;23;20231;-54
2021/11/21 10:45:49;;;;;;;26.27;19.97;;;8.50;99.90;;;;;;5022897;28;20717;-51
2021/11/21 10:48:24;;;;;;;27.70;21.03;;;8.50;99.90;;;;;;5022889;28;20177;-48
2021/11/21 10:50:51;;;;;;;26.43;21.07;;;9.30;99.90;;;;;;5031674;28;20167;-53
2021/11/21 10:53:19;;;;;;;26.10;20.23;;;8.30;99.90;;;;;;5021100;28;20211;-50
2021/11/21 10:55:44;;;;;;;22.33;17.73;;;8.00;99.90;;;;;;5011169;28;20180;-49
2021/11/21 10:58:11;;;;;;;23.10;18.13;;;8.00;99.90;;;;;;5011541;28;20182;-49
2021/11/21 11:00:37;;;;;;;21.83;16.63;;;8.10;99.90;;;;;;5010399;28;20187;-55
2021/11/21 11:03:02;;;;;;;20.50;15.50;;;8.20;99.90;;;;;;5005940;28;20283;-57
2021/11/21 11:05:28;;;;;;;19.17;14.77;;;8.20;99.90;;;;;;5011536;28;20180;-52
2021/11/21 11:07:57;;;;;;;18.87;14.47;;;8.30;99.90;;;;;;5010851;28;20635;-49
2021/11/21 11:10:24;;;;;;;20.60;15.40;;;8.40;99.90;;;;;;5012888;28;20164;-48
2021/11/21 11:13:14;;;;;;;20.53;15.70;;;8.30;99.90;;;;;;5012611;28;20196;-54
2021/11/21 11:15:42;;;;;;;21.80;16.67;;;8.50;99.90;;;;;;5012542;28;20169;-50
2021/11/21 11:18:11;;;;;;;20.50;15.67;;;8.40;99.90;;;;;;5008170;28;20173;-49
2021/11/21 11:20:48;;;;;;;20.27;15.63;;;8.50;99.90;;;;;;5010616;28;20177;-49
2021/11/21 11:23:19;;;;;;;20.20;15.73;;;8.70;99.90;;;;;;5012704;28;20725;-55
2021/11/21 11:25:46;;;;;;;23.40;17.07;;;8.90;99.90;;;;;;5012393;28;20173;-48
2021/11/21 11:28:29;;;;;;;21.57;16.70;;;8.70;99.90;;;;;;5012447;28;20179;-54
2021/11/21 11:30:57;;;;;;;22.97;17.73;;;8.40;99.90;;;;;;5012480;28;20173;-51
2021/11/21 11:33:35;;;;;;;21.67;17.07;;;8.10;99.90;;;;;;5012560;28;20224;-51
2021/11/21 11:36:01;;;;;;;21.63;16.33;;;7.90;99.90;;;;;;5012338;28;20215;-51
2021/11/21 11:38:32;;;;;;;23.30;18.10;;;7.90;99.90;;;;;;5010413;28;20200;-53
2021/11/21 11:40:58;;;;;;;21.20;16.40;;;8.00;99.90;;;;;;5012448;28;20260;-50
2021/11/21 11:43:27;;;;;;;22.23;16.47;;;8.20;99.90;;;;;;5012057;28;20208;-52
2021/11/21 11:45:57;;;;;;;23.43;17.93;;;8.50;99.90;;;;;;5012237;28;20171;-50
2021/11/21 11:48:29;;;;;;;23.57;18.23;;;8.60;99.90;;;;;;5011746;28;20176;-49
2021/11/21 11:50:55;;;;;;;24.00;18.10;;;8.30;99.90;;;;;;5012342;28;20172;-50
2021/11/21 11:53:33;;;;;;;24.77;18.90;;;8.20;99.90;;;;;;5006207;28;20197;-49
2021/11/21 11:56:24;;;;;;;24.10;17.87;;;8.20;99.90;;;;;;5011780;28;20222;-50
2021/11/21 11:59:02;;;;;;;21.83;17.37;;;8.00;99.90;;;;;;5011901;28;20168;-54
2021/11/21 12:01:39;;;;;;;23.50;17.37;;;8.00;99.90;;;;;;5011650;28;20164;-49
2021/11/21 12:04:17;;;;;;;24.33;17.37;;;8.10;99.90;;;;;;5011562;28;20266;-48
2021/11/21 12:06:52;;;;;;;21.20;16.37;;;8.20;99.90;;;;;;5010559;28;20223;-49
2021/11/21 12:09:22;;;;;;;22.00;15.77;;;8.20;99.90;;;;;;5006373;28;20199;-50
2021/11/21 12:12:00;;;;;;;21.77;15.97;;;8.10;99.90;;;;;;5010857;28;20177;-51
2021/11/21 12:14:35;;;;;;;21.63;17.00;;;8.10;99.90;;;;;;4994089;28;20226;-50
2021/11/21 12:17:12;;;;;;;21.40;16.40;;;8.00;99.90;;;;;;5011253;28;20180;-53
2021/11/21 12:19:42;;;;;;;22.67;17.40;;;7.90;99.90;;;;;;5011456;28;20199;-51
2021/11/21 12:22:37;;;;;;;23.03;17.03;;;7.90;99.90;;;;;;5011436;28;20196;-50
2021/11/21 12:25:17;;;;;;;23.97;17.20;;;7.80;99.90;;;;;;5011308;28;20195;-46
2021/11/21 12:27:55;;;;;;;24.53;18.53;;;7.80;99.90;;;;;;5011419;28;20165;-49
2021/11/21 12:30:32;;;;;;;24.07;17.77;;;7.90;99.90;;;;;;5011403;28;20168;-53
2021/11/21 12:33:28;;;;;;;25.03;19.50;;;7.90;99.90;;;;;;5011030;28;20192;-46
2021/11/21 12:35:54;;;;;;;23.17;17.73;;;8.10;99.90;;;;;;5010562;28;20231;-49
2021/11/21 12:38:20;;;;;;;22.70;17.40;;;8.20;99.90;;;;;;5009889;28;20169;-50